Time;durP1;ratioP1;P1;durP2;ratioP2;P2;SDS_P1;SDS_P2;PMS_P1;PMS_P2;Temp;Humidity;BMP_temperature;BMP_pressure;BME280_temperature;BME280_humidity;BME280_pressure;Samples;Min_cycle;Max_cycle;Signal;HPM_P1;HPM_P2
2021/12/01 00:04:46;;;;;;;7.90;3.50;;;;;;;4.40;68.99;97299.26;212144;1322;138886;-60
2021/12/01 00:09:49;;;;;;;7.00;2.70;;;;;;;4.39;69.15;97312.36;212734;1326;139183;-61
2021/12/01 00:14:52;;;;;;;9.10;2.60;;;;;;;4.36;69.12;97317.26;211993;1328;139359;-63
2021/12/01 00:19:55;;;;;;;8.50;2.20;;;;;;;4.34;69.01;97324.44;212060;1326;139525;-60
2021/12/01 00:24:58;;;;;;;4.60;2.10;;;;;;;4.33;68.97;97326.27;211899;1331;140195;-59
2021/12/01 00:30:01;;;;;;;5.80;1.80;;;;;;;4.31;68.85;97329.54;212523;1323;138978;-60
2021/12/01 00:35:06;;;;;;;6.60;1.90;;;;;;;4.29;69.12;97345.86;211897;1329;138669;-62
2021/12/01 00:40:11;;;;;;;5.00;2.00;;;;;;;4.26;68.91;97363.86;212336;1325;139628;-56
2021/12/01 00:45:19;;;;;;;5.70;2.00;;;;;;;4.23;68.78;97382.31;213048;1322;139012;-61
2021/12/01 00:50:27;;;;;;;5.10;2.00;;;;;;;4.22;68.98;97399.98;212706;1323;140445;-61
2021/12/01 00:55:32;;;;;;;6.30;2.10;;;;;;;4.21;68.91;97409.52;212909;1322;138822;-59
2021/12/01 01:00:35;;;;;;;6.20;2.30;;;;;;;4.20;69.08;97426.25;212301;1323;138799;-60
2021/12/01 01:05:38;;;;;;;6.50;2.20;;;;;;;4.14;69.13;97434.88;212582;1322;139909;-62
2021/12/01 01:21:07;;;;;;;7.90;2.00;;;;;;;4.01;69.45;97458.29;212454;1322;138951;-56
2021/12/01 01:26:16;;;;;;;5.90;2.40;;;;;;;3.94;69.53;97461.88;212648;1322;138814;-61
2021/12/01 01:31:20;;;;;;;9.10;2.50;;;;;;;3.94;69.71;97468.36;212649;1325;140027;-61
2021/12/01 01:36:24;;;;;;;4.90;2.00;;;;;;;4.01;69.84;97484.98;212065;1325;139002;-59
2021/12/01 01:41:27;;;;;;;7.20;2.10;;;;;;;3.98;70.00;97495.17;212182;1327;140141;-60
2021/12/01 01:46:33;;;;;;;9.30;2.40;;;;;;;3.93;69.83;97513.67;213054;1324;139146;-63
2021/12/01 01:51:36;;;;;;;;;;;;;;;3.87;69.86;97516.70;212093;1329;138812;-60
2021/12/01 01:56:40;;;;;;;6.20;2.00;;;;;;;3.80;70.18;97530.77;212882;1324;125151;-59
2021/12/01 02:01:44;;;;;;;6.80;2.00;;;;;;;3.74;70.10;97551.34;211988;1331;139446;-60
2021/12/01 02:06:49;;;;;;;6.40;1.60;;;;;;;3.62;70.19;97548.35;212055;1329;141475;-61
2021/12/01 02:11:54;;;;;;;6.00;1.90;;;;;;;3.55;70.50;97558.05;212297;1325;138775;-59
2021/12/01 02:16:58;;;;;;;;;;;;;;;3.53;70.40;97567.40;212600;1322;138652;-55
2021/12/01 02:22:01;;;;;;;6.80;2.20;;;;;;;3.52;70.52;97577.46;212465;1327;125888;-59
2021/12/01 02:27:06;;;;;;;9.10;2.10;;;;;;;3.56;70.52;97589.69;213365;1324;139420;-59
2021/12/01 02:32:09;;;;;;;4.90;1.70;;;;;;;3.60;70.52;97591.27;212820;1326;139016;-59
2021/12/01 02:37:12;;;;;;;4.30;1.50;;;;;;;3.54;70.36;97605.40;212364;1325;138500;-62
2021/12/01 02:42:19;;;;;;;1.90;1.10;;;;;;;3.49;70.59;97607.09;212465;1325;139190;-62
2021/12/01 02:47:26;;;;;;;2.10;0.70;;;;;;;3.44;70.26;97623.20;212845;1321;138924;-58
2021/12/01 02:52:34;;;;;;;1.90;1.00;;;;;;;3.37;70.40;97633.05;212215;1324;139129;-59
2021/12/01 02:57:47;;;;;;;4.00;1.00;;;;;;;3.32;70.35;97658.39;212554;1323;138931;-56
2021/12/01 03:02:52;;;;;;;2.70;1.10;;;;;;;3.27;70.53;97665.29;212091;1329;140119;-60
2021/12/01 03:07:57;;;;;;;4.90;1.50;;;;;;;3.29;70.90;97665.70;212488;1323;139288;-62
2021/12/01 03:13:00;;;;;;;3.50;1.50;;;;;;;3.32;70.73;97673.27;212815;1325;163443;-59
2021/12/01 03:18:04;;;;;;;2.50;1.40;;;;;;;3.32;70.87;97689.38;212300;1329;138668;-63
2021/12/01 03:23:08;;;;;;;4.20;1.60;;;;;;;3.30;70.77;97697.54;212656;1323;139985;-56
2021/12/01 03:28:11;;;;;;;4.00;1.70;;;;;;;3.27;71.06;97704.92;212799;1323;138822;-62
2021/12/01 03:33:19;;;;;;;3.70;1.90;;;;;;;3.28;71.25;97717.27;212628;1327;139076;-57
2021/12/01 03:38:27;;;;;;;6.00;1.70;;;;;;;3.36;71.35;97729.67;212344;1328;140110;-58
2021/12/01 03:43:30;;;;;;;6.00;1.90;;;;;;;3.45;71.08;97738.80;212266;1327;139390;-58
2021/12/01 03:48:33;;;;;;;5.20;1.90;;;;;;;3.49;71.00;97754.72;212397;1328;139281;-56
2021/12/01 03:53:36;;;;;;;3.50;1.70;;;;;;;3.52;70.95;97763.48;211999;1324;139385;-62
2021/12/01 03:58:39;;;;;;;6.00;1.70;;;;;;;3.55;70.85;97766.34;211858;1328;139513;-57
2021/12/01 04:03:42;;;;;;;4.80;1.70;;;;;;;3.57;70.85;97767.42;212646;1322;139223;-58
2021/12/01 04:08:47;;;;;;;5.00;1.40;;;;;;;3.61;70.73;97772.33;212657;1322;139506;-58
2021/12/01 04:13:51;;;;;;;3.80;1.50;;;;;;;3.63;70.51;97785.55;212149;1325;139486;-57
2021/12/01 04:18:54;;;;;;;3.50;1.60;;;;;;;3.69;70.56;97791.19;212185;1325;138607;-59
2021/12/01 04:23:57;;;;;;;2.30;1.10;;;;;;;3.75;70.37;97789.98;212456;1325;139210;-58
2021/12/01 04:29:03;;;;;;;5.00;1.60;;;;;;;3.77;70.29;97800.54;212021;1325;138917;-57
2021/12/01 04:34:07;;;;;;;3.80;1.30;;;;;;;3.78;70.22;97805.42;212579;1323;139274;-58
2021/12/01 04:39:14;;;;;;;3.40;1.40;;;;;;;3.79;69.84;97813.27;212545;1322;138851;-60
2021/12/01 04:44:20;;;;;;;3.30;1.60;;;;;;;3.78;69.95;97827.34;212032;1328;139051;-58
2021/12/01 04:49:24;;;;;;;2.80;0.90;;;;;;;3.76;69.72;97829.18;212598;1325;139358;-61
2021/12/01 04:54:28;;;;;;;4.30;1.40;;;;;;;3.78;69.69;97837.34;212354;1321;138922;-59
2021/12/01 04:59:32;;;;;;;4.70;1.10;;;;;;;3.82;69.63;97842.75;212320;1322;139327;-55
2021/12/01 05:04:35;;;;;;;3.50;1.50;;;;;;;3.88;69.55;97845.39;212180;1326;139131;-58
2021/12/01 05:09:38;;;;;;;3.90;1.50;;;;;;;3.89;69.51;97849.02;212412;1325;139468;-58
2021/12/01 05:14:41;;;;;;;3.50;1.60;;;;;;;3.90;69.33;97856.73;213096;1321;139588;-59
2021/12/01 05:19:44;;;;;;;4.20;1.60;;;;;;;3.89;69.29;97864.97;212331;1329;138531;-59
2021/12/01 05:24:47;;;;;;;4.40;1.60;;;;;;;3.90;69.32;97868.80;212862;1325;140481;-58
2021/12/01 05:29:50;;;;;;;3.60;1.60;;;;;;;3.91;69.11;97866.80;212002;1329;140968;-61
2021/12/01 05:34:53;;;;;;;3.00;1.60;;;;;;;3.93;69.25;97866.88;212884;1326;138655;-60
2021/12/01 05:39:59;;;;;;;5.00;1.50;;;;;;;3.97;69.13;97865.77;212242;1322;139834;-57
2021/12/01 05:45:02;;;;;;;3.40;1.40;;;;;;;3.96;69.01;97861.27;212851;1322;139487;-61
2021/12/01 05:50:06;;;;;;;4.30;1.60;;;;;;;3.93;68.57;97852.14;212525;1325;139487;-63
2021/12/01 05:55:10;;;;;;;4.70;1.80;;;;;;;3.89;68.53;97851.48;212595;1322;138868;-60
2021/12/01 06:00:14;;;;;;;5.30;1.60;;;;;;;3.93;68.78;97858.64;212422;1323;139772;-60
2021/12/01 06:05:21;;;;;;;2.50;1.30;;;;;;;3.97;68.70;97858.92;212772;1322;143495;-59
2021/12/01 06:10:24;;;;;;;3.70;1.60;;;;;;;3.97;68.85;97856.64;212629;1322;138481;-61
2021/12/01 06:15:30;;;;;;;5.60;1.90;;;;;;;3.96;68.43;97860.20;213370;1322;139025;-57
2021/12/01 06:20:34;;;;;;;3.40;1.70;;;;;;;3.98;68.59;97866.45;212297;1329;138884;-59
2021/12/01 06:25:37;;;;;;;5.20;2.10;;;;;;;3.97;68.46;97869.63;212632;1325;138174;-63
2021/12/01 06:30:40;;;;;;;5.10;2.00;;;;;;;3.95;68.29;97866.23;212406;1328;139110;-58
2021/12/01 06:35:49;;;;;;;6.50;1.70;;;;;;;4.00;68.42;97870.50;211862;1325;140704;-58
2021/12/01 06:40:52;;;;;;;5.10;2.00;;;;;;;4.07;68.22;97879.48;212251;1323;138887;-57
2021/12/01 06:45:55;;;;;;;4.90;2.30;;;;;;;4.12;68.23;97885.52;211887;1331;140014;-59
2021/12/01 06:50:58;;;;;;;4.80;2.40;;;;;;;4.14;68.27;97891.17;212209;1322;139266;-59
2021/12/01 06:56:01;;;;;;;42.80;25.90;;;;;;;4.17;68.13;97894.75;212212;1323;138967;-60
2021/12/01 07:01:06;;;;;;;6.00;3.70;;;;;;;4.27;68.47;97880.11;213011;1322;139280;-59
2021/12/01 07:06:16;;;;;;;6.00;2.50;;;;;;;4.29;68.15;97886.00;212129;1325;138998;-64
2021/12/01 07:11:19;;;;;;;6.70;2.70;;;;;;;4.23;67.92;97884.54;212921;1325;140173;-60
2021/12/01 07:16:22;;;;;;;5.20;2.60;;;;;;;4.19;67.74;97882.34;212891;1321;139998;-60
2021/12/01 07:21:26;;;;;;;11.90;6.00;;;;;;;4.25;68.14;97891.13;212313;1323;139904;-58
2021/12/01 07:26:29;;;;;;;5.90;3.00;;;;;;;4.31;67.75;97886.04;212251;1322;139514;-67
2021/12/01 07:31:33;;;;;;;7.10;2.80;;;;;;;4.34;67.77;97878.19;212134;1329;139303;-62
2021/12/01 07:36:36;;;;;;;10.90;2.90;;;;;;;4.32;67.69;97870.90;212672;1323;138635;-70
2021/12/01 07:41:39;;;;;;;5.30;2.50;;;;;;;4.28;67.57;97863.92;211936;1328;139586;-62
2021/12/01 07:46:42;;;;;;;10.90;5.80;;;;;;;4.32;67.92;97857.58;211814;1331;139395;-67
2021/12/01 07:51:46;;;;;;;7.00;3.20;;;;;;;4.41;67.85;97844.39;212572;1322;139243;-63
2021/12/01 07:56:49;;;;;;;5.00;2.80;;;;;;;4.45;67.32;97838.02;212428;1329;140011;-60
2021/12/01 08:01:52;;;;;;;8.20;3.50;;;;;;;4.46;67.36;97833.04;212883;1325;138806;-62
2021/12/01 08:06:56;;;;;;;6.30;3.40;;;;;;;4.44;67.25;97824.72;212242;1322;139266;-60
2021/12/01 08:11:59;;;;;;;14.20;9.50;;;;;;;4.47;67.43;97823.15;212171;1329;139481;-61
2021/12/01 08:17:02;;;;;;;8.80;5.00;;;;;;;4.61;67.54;97814.29;212561;1320;140119;-58
2021/12/01 08:22:08;;;;;;;10.40;5.70;;;;;;;4.61;67.39;97807.45;212919;1322;138840;-57
2021/12/01 08:27:13;;;;;;;9.00;5.70;;;;;;;4.55;66.90;97809.90;212402;1325;139266;-60
2021/12/01 08:32:17;;;;;;;10.10;5.70;;;;;;;4.51;66.92;97806.41;212406;1328;140363;-61
2021/12/01 08:37:21;;;;;;;13.80;6.30;;;;;;;4.48;66.97;97811.88;211898;1328;139213;-60
2021/12/01 08:42:24;;;;;;;15.30;6.60;;;;;;;4.53;67.08;97805.61;212640;1323;139905;-61
2021/12/01 08:47:29;;;;;;;14.00;7.00;;;;;;;4.58;66.72;97801.80;212062;1331;138409;-60
2021/12/01 08:52:32;;;;;;;12.80;6.40;;;;;;;4.63;66.81;97798.56;212367;1325;139563;-60
2021/12/01 08:57:37;;;;;;;12.10;6.20;;;;;;;4.62;66.82;97792.29;212910;1328;139408;-57
2021/12/01 09:02:40;;;;;;;26.20;12.00;;;;;;;4.69;67.27;97792.56;212147;1327;140134;-59
2021/12/01 09:07:43;;;;;;;13.90;6.40;;;;;;;4.83;66.75;97790.16;212194;1329;139183;-58
2021/12/01 09:12:46;;;;;;;7.40;4.40;;;;;;;4.87;66.50;97787.48;212062;1329;139835;-59
2021/12/01 09:17:49;;;;;;;176.30;100.10;;;;;;;4.84;66.24;97784.32;212254;1321;138390;-60
2021/12/01 09:22:53;;;;;;;11.10;4.90;;;;;;;4.94;66.36;97771.59;212798;1323;142699;-60
2021/12/01 09:27:56;;;;;;;9.80;3.70;;;;;;;5.05;65.97;97765.14;212534;1328;139367;-60
2021/12/01 09:33:00;;;;;;;5.10;2.80;;;;;;;5.08;65.52;97761.27;212116;1325;139403;-59
2021/12/01 09:38:08;;;;;;;7.90;2.70;;;;;;;5.06;65.18;97757.85;211987;1328;139258;-61
2021/12/01 09:43:13;;;;;;;13.00;2.70;;;;;;;5.11;65.38;97756.52;212608;1325;139086;-61
2021/12/01 09:48:18;;;;;;;10.30;2.90;;;;;;;5.19;65.14;97741.06;212424;1328;139020;-59
2021/12/01 09:53:39;;;;;;;8.80;3.30;;;;;;;5.30;65.08;97725.84;212353;1325;139105;-61
2021/12/01 09:58:43;;;;;;;11.00;3.80;;;;;;;5.29;64.63;97721.30;213033;1322;139142;-61
2021/12/01 10:03:47;;;;;;;7.70;3.50;;;;;;;5.37;64.73;97712.55;211733;1328;138864;-60
2021/12/01 10:09:02;;;;;;;10.80;3.10;;;;;;;5.50;64.79;97712.23;212061;1331;139009;-59
2021/12/01 10:14:10;;;;;;;6.10;2.90;;;;;;;5.64;64.42;97703.96;212220;1322;139483;-58
2021/12/01 10:19:16;;;;;;;16.90;7.60;;;;;;;5.76;64.55;97700.42;212601;1327;138854;-60
2021/12/01 10:24:24;;;;;;;9.70;3.10;;;;;;;5.98;64.62;97691.80;212634;1326;138746;-59
2021/12/01 10:29:30;;;;;;;4.90;2.40;;;;;;;5.94;63.87;97690.30;212795;1326;138751;-60
2021/12/01 10:34:36;;;;;;;6.10;2.20;;;;;;;5.93;63.37;97679.59;211904;1331;139253;-59
2021/12/01 10:39:42;;;;;;;6.60;2.60;;;;;;;5.98;63.14;97673.65;212685;1329;138513;-60
2021/12/01 10:45:16;;;;;;;8.50;2.60;;;;;;;6.01;63.01;97664.84;212004;1324;139030;-60
2021/12/01 10:50:23;;;;;;;5.80;2.60;;;;;;;6.04;62.78;97654.08;211840;1331;138630;-58
2021/12/01 10:55:27;;;;;;;5.20;2.10;;;;;;;6.08;62.85;97647.13;211891;1332;139045;-60
2021/12/01 11:00:30;;;;;;;6.30;2.50;;;;;;;6.11;62.43;97635.27;211973;1330;139605;-58
2021/12/01 11:05:56;;;;;;;9.70;3.70;;;;;;;6.14;61.99;97623.98;212750;1324;139223;-58
2021/12/01 11:11:06;;;;;;;46.60;25.90;;;;;;;6.26;62.54;97607.30;212397;1324;139726;-59
2021/12/01 11:16:11;;;;;;;15.20;6.30;;;;;;;6.54;62.69;97600.17;212427;1326;316050;-58
2021/12/01 11:21:23;;;;;;;11.10;3.20;;;;;;;6.63;62.05;97593.04;212110;1329;138612;-60
2021/12/01 11:26:29;;;;;;;5.80;2.70;;;;;;;6.68;61.70;97587.77;212117;1328;139275;-59
2021/12/01 11:31:38;;;;;;;;;;;;;;;6.65;61.48;97576.67;212618;1323;139207;-63
2021/12/01 11:36:44;;;;;;;7.40;3.00;;;;;;;6.57;61.20;97573.48;212570;1324;125635;-61
2021/12/01 11:41:49;;;;;;;89.20;56.00;;;;;;;6.52;61.21;97571.75;211853;1331;139522;-60
2021/12/01 11:46:53;;;;;;;11.20;4.30;;;;;;;6.59;61.59;97562.09;211947;1329;139328;-61
2021/12/01 11:52:03;;;;;;;8.50;2.60;;;;;;;6.62;61.51;97552.56;211965;1329;141814;-59
2021/12/01 11:57:09;;;;;;;8.50;2.10;;;;;;;6.57;61.40;97544.98;212904;1325;138898;-60
2021/12/01 12:02:18;;;;;;;;;;;;;;;6.51;61.49;97530.44;213613;1327;139005;-62
2021/12/01 12:07:31;;;;;;;8.80;2.50;;;;;;;6.45;61.67;97515.38;212093;1329;125282;-60
2021/12/01 12:12:58;;;;;;;13.60;6.30;;;;;;;6.45;62.49;97506.52;212594;1328;138994;-61
2021/12/01 12:18:02;;;;;;;6.70;2.90;;;;;;;6.51;62.54;97489.05;212678;1325;140379;-60
2021/12/01 12:23:09;;;;;;;3.50;2.10;;;;;;;6.50;62.82;97469.88;212249;1329;138907;-61
2021/12/01 12:28:21;;;;;;;6.20;2.40;;;;;;;6.47;62.81;97470.60;212598;1328;139831;-59
2021/12/01 12:33:26;;;;;;;5.00;2.40;;;;;;;6.42;63.25;97468.36;212251;1325;138889;-64
2021/12/01 12:38:30;;;;;;;7.30;2.50;;;;;;;6.42;63.06;97463.59;212377;1324;139147;-60
2021/12/01 12:43:35;;;;;;;4.90;2.20;;;;;;;6.37;63.28;97459.83;212280;1327;141634;-58
2021/12/01 12:48:49;;;;;;;6.80;2.40;;;;;;;6.44;63.68;97445.16;212374;1328;139145;-61
2021/12/01 12:54:03;;;;;;;11.00;2.80;;;;;;;6.50;63.59;97422.13;211860;1329;138363;-60
2021/12/01 12:59:20;;;;;;;3.30;2.10;;;;;;;6.57;63.78;97411.09;212737;1323;140231;-59
2021/12/01 13:04:48;;;;;;;7.00;2.60;;;;;;;6.66;64.03;97406.73;212276;1328;140344;-60
2021/12/01 13:10:19;;;;;;;7.30;2.60;;;;;;;6.76;63.89;97400.90;212596;1327;138916;-59
2021/12/01 13:15:35;;;;;;;5.90;2.20;;;;;;;6.81;63.78;97401.18;212392;1325;139380;-57
2021/12/01 13:20:41;;;;;;;6.90;2.80;;;;;;;6.87;63.86;97392.13;212430;1323;139119;-60
2021/12/01 13:25:53;;;;;;;4.80;2.40;;;;;;;6.91;63.94;97386.19;212648;1321;139503;-60
2021/12/01 13:31:20;;;;;;;7.50;3.70;;;;;;;6.92;63.65;97374.88;212176;1328;139045;-61
2021/12/01 13:36:34;;;;;;;7.90;3.90;;;;;;;6.97;64.17;97371.30;212284;1324;139223;-58
2021/12/01 13:41:41;;;;;;;6.50;2.90;;;;;;;7.07;63.86;97354.38;212006;1323;139057;-60
2021/12/01 13:46:46;;;;;;;4.60;2.80;;;;;;;7.03;63.84;97340.36;212925;1326;139410;-60
2021/12/01 13:51:49;;;;;;;8.10;2.50;;;;;;;7.00;63.83;97331.58;211914;1331;139489;-58
2021/12/01 13:57:21;;;;;;;5.10;2.60;;;;;;;7.00;63.90;97329.96;212584;1322;138760;-58
2021/12/01 14:02:28;;;;;;;7.00;3.70;;;;;;;7.20;66.16;97320.70;211951;1329;138971;-62
2021/12/01 14:07:47;;;;;;;6.60;2.30;;;;;;;8.29;66.52;97302.11;212311;1326;142090;-58
2021/12/01 14:12:57;;;;;;;6.30;2.90;;;;;;;8.15;64.05;97287.17;211692;1330;140597;-59
2021/12/01 14:18:01;;;;;;;7.70;3.10;;;;;;;7.94;63.73;97277.02;211734;1332;139646;-59
2021/12/01 14:23:05;;;;;;;4.60;2.40;;;;;;;7.74;63.65;97271.39;212549;1326;139788;-64
2021/12/01 14:28:13;;;;;;;7.00;2.50;;;;;;;7.55;63.77;97261.56;212613;1321;139861;-58
2021/12/01 14:33:18;;;;;;;5.00;2.80;;;;;;;7.39;63.96;97259.67;212496;1322;139294;-60
2021/12/01 14:38:25;;;;;;;4.80;2.20;;;;;;;7.27;64.16;97250.33;211966;1324;139704;-57
2021/12/01 14:43:29;;;;;;;;;;;;;;;7.15;64.24;97237.35;212369;1326;139255;-57
2021/12/01 14:48:34;;;;;;;13.00;8.30;;;;;;;7.12;65.19;97231.22;212177;1322;125605;-58
2021/12/01 14:53:40;;;;;;;5.90;2.90;;;;;;;7.26;65.35;97226.64;212048;1325;139332;-58
2021/12/01 14:58:50;;;;;;;;;;;;;;;7.25;64.93;97219.09;212084;1324;140257;-60
2021/12/01 15:04:06;;;;;;;3.60;2.20;;;;;;;7.23;65.13;97207.13;211947;1332;126388;-58
2021/12/01 15:09:09;;;;;;;4.50;2.30;;;;;;;7.19;65.21;97207.41;212279;1326;139383;-58
2021/12/01 15:14:28;;;;;;;183.70;105.00;;;;;;;7.12;65.42;97205.80;212633;1323;138617;-58
2021/12/01 15:19:32;;;;;;;9.50;5.10;;;;;;;7.13;65.79;97207.85;212053;1329;141455;-59
2021/12/01 15:24:36;;;;;;;7.40;4.20;;;;;;;7.12;65.76;97204.06;212446;1322;138681;-60
2021/12/01 15:29:39;;;;;;;16.70;7.90;;;;;;;7.07;66.00;97203.41;212291;1324;138847;-58
2021/12/01 15:34:42;;;;;;;67.00;44.70;;;;;;;7.12;66.46;97212.19;211742;1331;138813;-58
2021/12/01 15:39:45;;;;;;;9.50;5.30;;;;;;;7.23;66.24;97206.36;212002;1328;139551;-60
2021/12/01 15:44:49;;;;;;;11.40;6.00;;;;;;;7.24;65.87;97208.45;212232;1325;140669;-60
2021/12/01 15:49:52;;;;;;;10.60;5.60;;;;;;;7.18;65.79;97209.63;211857;1329;139228;-60
2021/12/01 15:54:55;;;;;;;10.00;5.70;;;;;;;7.09;65.81;97199.74;212663;1321;138966;-57
2021/12/01 15:59:58;;;;;;;59.00;35.00;;;;;;;7.06;66.11;97200.60;211734;1332;139492;-58
2021/12/01 16:05:03;;;;;;;12.10;7.10;;;;;;;7.11;66.58;97200.82;212293;1321;140756;-59
2021/12/01 16:10:06;;;;;;;9.40;5.90;;;;;;;7.06;66.32;97195.17;212546;1326;139252;-58
2021/12/01 16:15:11;;;;;;;11.90;6.30;;;;;;;6.94;66.28;97182.73;212871;1323;139795;-58
2021/12/01 16:20:16;;;;;;;10.90;6.20;;;;;;;6.83;66.22;97171.41;212667;1322;141047;-61
2021/12/01 16:25:21;;;;;;;19.30;12.20;;;;;;;6.77;66.44;97160.41;212143;1324;139211;-57
2021/12/01 16:30:31;;;;;;;12.80;7.20;;;;;;;6.84;67.15;97150.50;212120;1327;141235;-58
2021/12/01 16:35:37;;;;;;;7.40;4.60;;;;;;;7.00;67.00;97144.37;212009;1328;139619;-58
2021/12/01 16:40:43;;;;;;;5.90;3.60;;;;;;;6.94;66.64;97138.66;212343;1328;138673;-60
2021/12/01 16:45:46;;;;;;;7.00;3.50;;;;;;;6.91;66.85;97127.11;212177;1325;139808;-57
2021/12/01 16:50:50;;;;;;;5.00;3.10;;;;;;;6.94;66.94;97110.23;211990;1329;139319;-60
2021/12/01 16:55:53;;;;;;;5.40;2.60;;;;;;;7.00;67.09;97099.39;212148;1329;139759;-58
2021/12/01 17:00:58;;;;;;;7.20;4.30;;;;;;;7.08;67.26;97091.54;211840;1331;139347;-57
2021/12/01 17:06:06;;;;;;;6.20;3.80;;;;;;;7.22;67.16;97086.91;212014;1322;139435;-60
2021/12/01 17:11:10;;;;;;;19.00;11.40;;;;;;;7.38;67.43;97075.58;212381;1322;139915;-61
2021/12/01 17:16:15;;;;;;;5.20;3.10;;;;;;;7.65;67.36;97073.50;211963;1331;140718;-58
2021/12/01 17:21:20;;;;;;;4.80;2.90;;;;;;;7.80;66.85;97064.18;212773;1322;139945;-57
2021/12/01 17:26:24;;;;;;;6.00;3.20;;;;;;;7.80;66.53;97059.59;212018;1329;139630;-60
2021/12/01 17:31:32;;;;;;;6.60;3.80;;;;;;;7.75;66.19;97053.45;212280;1323;140849;-59
2021/12/01 17:36:35;;;;;;;7.80;4.30;;;;;;;7.70;65.98;97041.16;212102;1325;139431;-59
2021/12/01 17:41:38;;;;;;;7.90;4.60;;;;;;;7.67;66.20;97032.93;212759;1322;139581;-57
2021/12/01 17:46:41;;;;;;;8.80;4.80;;;;;;;7.68;66.00;97029.75;212605;1323;139142;-58
2021/12/01 17:51:45;;;;;;;17.70;10.50;;;;;;;7.73;66.38;97020.62;212402;1325;139359;-59
2021/12/01 17:56:48;;;;;;;12.10;6.10;;;;;;;7.90;66.43;97021.86;211776;1330;139389;-60
2021/12/01 18:01:52;;;;;;;11.90;6.10;;;;;;;7.97;66.16;97024.06;212050;1325;139277;-61
2021/12/01 18:06:55;;;;;;;97.90;65.50;;;;;;;7.99;65.94;97028.73;212106;1322;138593;-58
2021/12/01 18:11:58;;;;;;;12.50;6.40;;;;;;;8.05;66.00;97019.56;212660;1326;139444;-59
2021/12/01 18:17:02;;;;;;;11.30;6.60;;;;;;;8.09;65.71;97018.02;212329;1322;142121;-59
2021/12/01 18:22:05;;;;;;;301.00;168.60;;;;;;;8.11;65.86;97021.33;212284;1328;139562;-60
2021/12/01 18:27:08;;;;;;;19.70;10.80;;;;;;;8.22;66.00;97006.61;212252;1331;140005;-60
2021/12/01 18:32:14;;;;;;;19.30;10.60;;;;;;;8.21;65.46;96996.08;213294;1322;138898;-58
2021/12/01 18:37:18;;;;;;;20.40;10.60;;;;;;;8.09;65.15;96986.55;212182;1325;139509;-59
2021/12/01 18:42:21;;;;;;;19.70;10.90;;;;;;;8.00;65.05;96985.21;211974;1331;139548;-61
2021/12/01 18:47:24;;;;;;;21.30;11.50;;;;;;;7.95;65.19;96981.06;212969;1324;139556;-60
2021/12/01 18:52:27;;;;;;;26.50;13.50;;;;;;;7.90;65.04;96980.52;212390;1323;139950;-57
2021/12/01 18:57:31;;;;;;;22.20;12.20;;;;;;;7.88;65.13;96976.16;212291;1325;139438;-62
2021/12/01 19:02:35;;;;;;;22.80;13.20;;;;;;;7.81;64.84;96967.19;211992;1325;139175;-60
2021/12/01 19:07:40;;;;;;;23.20;13.00;;;;;;;7.84;65.58;96957.42;212717;1326;139697;-60
2021/12/01 19:12:43;;;;;;;21.10;12.90;;;;;;;7.93;65.13;96954.02;211638;1325;215277;-58
2021/12/01 19:17:48;;;;;;;33.50;19.90;;;;;;;7.86;65.15;96950.73;212192;1325;140116;-59
2021/12/01 19:22:54;;;;;;;26.90;14.50;;;;;;;7.86;65.02;96941.35;212044;1322;141227;-58
2021/12/01 19:27:58;;;;;;;25.00;14.50;;;;;;;7.78;64.80;96937.80;212009;1332;140144;-58
2021/12/01 19:33:01;;;;;;;27.10;14.30;;;;;;;7.67;64.76;96932.15;211842;1328;139580;-61
2021/12/01 19:38:04;;;;;;;25.40;14.60;;;;;;;7.63;64.88;96933.40;212205;1325;139571;-59
2021/12/01 19:43:07;;;;;;;22.40;12.50;;;;;;;7.57;64.93;96931.60;212142;1325;139166;-60
2021/12/01 19:48:11;;;;;;;22.60;13.00;;;;;;;7.58;64.93;96923.73;212797;1325;140563;-59
2021/12/01 19:53:14;;;;;;;22.50;13.00;;;;;;;7.64;65.10;96923.06;213375;1322;141172;-61
2021/12/01 19:58:18;;;;;;;22.80;13.10;;;;;;;7.65;64.98;96913.10;212502;1325;138849;-57
2021/12/01 20:03:22;;;;;;;25.90;14.10;;;;;;;7.58;65.00;96910.38;211899;1332;140581;-58
2021/12/01 20:08:28;;;;;;;25.10;14.40;;;;;;;7.48;64.83;96909.29;211933;1331;139845;-56
2021/12/01 20:13:34;;;;;;;23.10;12.80;;;;;;;7.42;65.14;96914.89;212204;1321;139949;-58
2021/12/01 20:18:39;;;;;;;18.50;10.00;;;;;;;7.35;65.08;96927.10;211986;1325;140537;-60
2021/12/01 20:23:44;;;;;;;25.00;12.50;;;;;;;7.32;65.27;96920.41;212419;1326;141544;-61
2021/12/01 20:28:47;;;;;;;17.10;9.10;;;;;;;7.32;65.33;96916.71;212196;1326;139192;-62
2021/12/01 20:33:53;;;;;;;24.30;13.70;;;;;;;7.36;65.49;96911.50;212634;1327;138720;-61
2021/12/01 20:39:02;;;;;;;19.80;11.50;;;;;;;7.45;65.67;96903.83;211932;1328;139874;-62
2021/12/01 20:44:11;;;;;;;13.70;7.20;;;;;;;7.56;65.41;96892.51;212499;1326;139249;-59
2021/12/01 20:54:53;;;;;;;7.20;3.30;;;;;;;7.79;65.40;96883.30;212522;1322;139969;-59
2021/12/01 21:05:03;;;;;;;;;;;;;;;8.24;65.17;96879.44;212647;1326;139548;-58
2021/12/01 21:10:08;;;;;;;5.90;3.30;;;;;;;8.38;64.89;96870.98;212752;1325;125253;-58
2021/12/01 21:15:11;;;;;;;5.50;3.20;;;;;;;8.53;64.70;96858.42;212283;1325;138934;-60
2021/12/01 21:20:14;;;;;;;7.70;2.90;;;;;;;8.66;64.56;96863.22;212123;1326;140496;-56
2021/12/01 21:25:18;;;;;;;6.10;3.00;;;;;;;8.76;64.23;96863.92;212466;1322;139886;-62
2021/12/01 21:30:21;;;;;;;9.00;3.20;;;;;;;8.84;63.99;96862.14;212202;1322;138892;-58
2021/12/01 21:35:24;;;;;;;4.60;2.60;;;;;;;8.92;63.86;96847.11;211895;1331;141070;-59
2021/12/01 21:40:29;;;;;;;3.70;2.10;;;;;;;9.00;63.71;96843.84;212513;1325;139407;-59
2021/12/01 21:45:32;;;;;;;4.50;2.60;;;;;;;9.06;63.42;96835.55;212218;1322;138765;-55
2021/12/01 21:50:36;;;;;;;5.60;2.30;;;;;;;9.12;63.32;96835.91;212432;1324;139014;-58
2021/12/01 21:55:43;;;;;;;4.00;2.30;;;;;;;9.21;63.07;96837.39;212157;1328;140267;-60
2021/12/01 22:00:49;;;;;;;4.60;1.90;;;;;;;9.29;63.00;96839.08;211876;1326;138650;-59
2021/12/01 22:05:53;;;;;;;5.30;1.90;;;;;;;9.37;62.82;96831.97;212026;1330;138790;-59
2021/12/01 22:10:57;;;;;;;5.20;1.90;;;;;;;9.42;62.72;96828.14;211865;1330;139218;-58
2021/12/01 22:16:00;;;;;;;6.00;2.30;;;;;;;9.45;62.34;96820.48;211976;1332;139020;-59
2021/12/01 22:21:15;;;;;;;3.40;2.00;;;;;;;9.46;61.99;96819.99;212720;1325;139661;-58
2021/12/01 22:26:24;;;;;;;3.20;2.00;;;;;;;9.45;61.85;96823.27;212847;1322;139253;-60
2021/12/01 22:31:27;;;;;;;4.80;1.50;;;;;;;9.47;61.85;96825.95;212825;1322;139504;-55
2021/12/01 22:36:33;;;;;;;2.70;1.50;;;;;;;9.49;61.91;96831.03;212125;1328;139016;-59
2021/12/01 22:41:40;;;;;;;4.20;1.70;;;;;;;9.52;61.66;96826.70;212979;1326;139479;-60
2021/12/01 22:46:44;;;;;;;4.40;1.70;;;;;;;9.52;61.62;96827.07;212267;1328;138716;-54
2021/12/01 22:51:47;;;;;;;4.00;2.00;;;;;;;9.52;61.55;96827.66;212472;1326;139136;-59
2021/12/01 22:56:57;;;;;;;2.70;1.30;;;;;;;9.52;61.34;96834.89;212736;1325;139522;-58
2021/12/01 23:02:03;;;;;;;3.40;1.50;;;;;;;9.53;61.54;96842.60;212323;1325;138497;-62
2021/12/01 23:07:06;;;;;;;2.60;1.70;;;;;;;9.52;61.47;96839.86;212465;1320;139371;-60
2021/12/01 23:12:09;;;;;;;3.40;1.70;;;;;;;9.50;61.53;96834.66;212469;1323;139571;-60
2021/12/01 23:17:14;;;;;;;3.30;1.80;;;;;;;9.48;61.16;96827.04;212539;1329;140566;-60
2021/12/01 23:22:19;;;;;;;1.30;1.10;;;;;;;9.42;61.29;96816.66;212209;1325;139195;-59
2021/12/01 23:27:32;;;;;;;3.00;1.60;;;;;;;9.38;61.24;96808.88;212910;1322;139366;-55
2021/12/01 23:32:44;;;;;;;3.70;1.50;;;;;;;9.35;61.46;96807.62;212842;1326;139261;-56
2021/12/01 23:37:47;;;;;;;4.10;1.60;;;;;;;9.34;61.33;96807.65;212041;1329;138978;-56
2021/12/01 23:42:51;;;;;;;4.30;1.80;;;;;;;9.31;61.42;96805.11;212031;1328;138794;-59
2021/12/01 23:48:19;;;;;;;2.50;1.30;;;;;;;9.29;61.43;96808.91;212270;1326;139293;-57
2021/12/01 23:53:22;;;;;;;4.40;1.50;;;;;;;9.20;61.44;96812.13;213092;1325;140035;-60
2021/12/01 23:58:26;;;;;;;2.30;1.20;;;;;;;9.14;61.54;96820.66;212152;1324;139448;-58
